Time;durP1;ratioP1;P1;durP2;ratioP2;P2;SDS_P1;SDS_P2;PMS_P1;PMS_P2;Temp;Humidity;BMP_temperature;BMP_pressure;BME280_temperature;BME280_humidity;BME280_pressure;Samples;Min_cycle;Max_cycle;Signal;HPM_P1;HPM_P2
2021/06/11 00:00:00;;;;;;;8.15;5.00;;;;;;;;;;5015298;28;20479;-75
2021/06/11 00:02:25;;;;;;;7.20;4.70;;;;;;;;;;5015702;28;20546;-75
2021/06/11 00:04:51;;;;;;;6.32;4.57;;;;;;;;;;5027824;28;20068;-75
2021/06/11 00:07:16;;;;;;;7.97;4.68;;;;;;;;;;5018741;28;20836;-75
2021/06/11 00:09:42;;;;;;;6.40;4.28;;;;;;;;;;5035198;28;20109;-75
2021/06/11 00:12:08;;;;;;;6.90;3.80;;;;;;;;;;5015174;28;20048;-75
2021/06/11 00:14:33;;;;;;;5.97;4.05;;;;;;;;;;5031505;28;20113;-75
2021/06/11 00:16:59;;;;;;;5.43;4.40;;;;;;;;;;5031796;28;20034;-75
2021/06/11 00:19:24;;;;;;;5.60;4.22;;;;;;;;;;5031468;28;20030;-75
2021/06/11 00:21:50;;;;;;;5.03;4.10;;;;;;;;;;5031399;28;20107;-75
2021/06/11 00:24:15;;;;;;;6.28;4.07;;;;;;;;;;5030988;28;20056;-75
2021/06/11 00:26:41;;;;;;;4.88;3.47;;;;;;;;;;5014634;28;20037;-75
2021/06/11 00:29:06;;;;;;;6.03;4.03;;;;;;;;;;4998784;28;20033;-75
2021/06/11 00:31:32;;;;;;;4.70;3.38;;;;;;;;;;4982035;28;20041;-75
2021/06/11 00:33:57;;;;;;;6.05;3.55;;;;;;;;;;5014904;28;20037;-75
2021/06/11 00:36:23;;;;;;;4.18;2.92;;;;;;;;;;4998000;28;20037;-75
2021/06/11 00:38:49;;;;;;;6.15;3.50;;;;;;;;;;5014700;28;20026;-75
2021/06/11 00:41:15;;;;;;;4.05;3.25;;;;;;;;;;4998590;28;20053;-75
2021/06/11 00:43:40;;;;;;;4.68;3.38;;;;;;;;;;5015062;28;20035;-75
2021/06/11 00:46:06;;;;;;;4.40;3.00;;;;;;;;;;5014430;28;20029;-75
2021/06/11 00:48:31;;;;;;;4.38;2.97;;;;;;;;;;5031276;28;20047;-75
2021/06/11 00:50:57;;;;;;;4.15;3.17;;;;;;;;;;4998502;28;20045;-75
2021/06/11 00:53:22;;;;;;;5.38;2.88;;;;;;;;;;4981908;28;20111;-75
2021/06/11 00:55:48;;;;;;;4.90;3.55;;;;;;;;;;4997841;28;20033;-75
2021/06/11 00:58:13;;;;;;;3.92;2.90;;;;;;;;;;4998269;28;20102;-75
2021/06/11 01:00:39;;;;;;;4.13;3.03;;;;;;;;;;4997817;28;20033;-75
2021/06/11 01:03:06;;;;;;;2.95;2.33;;;;;;;;;;4998171;28;20449;-75
2021/06/11 01:05:31;;;;;;;4.78;3.13;;;;;;;;;;4994781;28;20030;-75
2021/06/11 01:07:57;;;;;;;4.32;2.72;;;;;;;;;;4997132;28;20357;-75
2021/06/11 01:10:22;;;;;;;4.32;3.08;;;;;;;;;;5014025;28;20112;-75
2021/06/11 01:12:49;;;;;;;3.80;2.95;;;;;;;;;;5030451;28;20030;-75
2021/06/11 01:15:16;;;;;;;5.47;3.13;;;;;;;;;;5013850;28;20033;-75
2021/06/11 01:17:42;;;;;;;3.50;2.47;;;;;;;;;;5014375;28;20033;-75
2021/06/11 01:20:09;;;;;;;3.35;2.50;;;;;;;;;;5013782;28;20125;-75
2021/06/11 01:22:53;;;;;;;3.88;2.72;;;;;;;;;;5014335;28;20051;-75
2021/06/11 01:25:29;;;;;;;4.90;2.47;;;;;;;;;;5015018;28;20037;-75
2021/06/11 01:27:55;;;;;;;3.63;2.50;;;;;;;;;;5015171;28;20135;-75
2021/06/11 01:30:22;;;;;;;4.18;2.72;;;;;;;;;;5013708;28;20476;-75
2021/06/11 01:32:48;;;;;;;3.67;2.78;;;;;;;;;;5013763;28;20088;-74
2021/06/11 01:35:34;;;;;;;3.70;2.55;;;;;;;;;;5014377;28;20037;-74
2021/06/11 01:38:01;;;;;;;5.38;2.40;;;;;;;;;;5015326;28;20033;-74
2021/06/11 01:40:27;;;;;;;4.80;2.72;;;;;;;;;;5013570;28;20241;-75
2021/06/11 01:42:54;;;;;;;4.30;2.63;;;;;;;;;;5029909;28;20040;-75
2021/06/11 01:45:19;;;;;;;3.03;2.15;;;;;;;;;;5013509;28;20056;-75
2021/06/11 01:47:46;;;;;;;3.63;2.90;;;;;;;;;;5014143;28;20479;-75
2021/06/11 01:50:32;;;;;;;4.47;2.50;;;;;;;;;;5017515;28;20506;-74
2021/06/11 01:52:59;;;;;;;3.58;2.58;;;;;;;;;;5017948;28;20103;-74
2021/06/11 01:55:24;;;;;;;3.40;2.72;;;;;;;;;;5017355;28;20030;-75
2021/06/11 01:57:49;;;;;;;4.40;2.67;;;;;;;;;;5017839;28;20022;-74
2021/06/11 02:00:17;;;;;;;2.78;1.98;;;;;;;;;;5017034;28;20067;-75
2021/06/11 02:02:43;;;;;;;5.88;2.50;;;;;;;;;;5007094;28;20125;-74
2021/06/11 02:05:09;;;;;;;4.18;2.65;;;;;;;;;;5016459;28;20120;-74
2021/06/11 02:07:35;;;;;;;3.05;2.33;;;;;;;;;;5017663;28;20068;-75
2021/06/11 02:10:02;;;;;;;3.90;2.50;;;;;;;;;;5017208;28;20080;-74
2021/06/11 02:12:27;;;;;;;3.70;2.47;;;;;;;;;;5017158;28;20509;-74
2021/06/11 02:14:53;;;;;;;3.45;2.63;;;;;;;;;;5000542;28;20060;-75
2021/06/11 02:17:18;;;;;;;5.00;2.40;;;;;;;;;;5001200;28;20029;-74
2021/06/11 02:19:44;;;;;;;2.97;2.15;;;;;;;;;;5013764;28;20060;-75
2021/06/11 02:22:10;;;;;;;3.25;2.40;;;;;;;;;;4997957;28;20112;-74
2021/06/11 02:24:36;;;;;;;4.53;2.85;;;;;;;;;;4998974;28;20042;-74
2021/06/11 02:27:02;;;;;;;3.63;2.70;;;;;;;;;;5000824;28;20035;-74
2021/06/11 02:29:27;;;;;;;3.30;2.30;;;;;;;;;;5016972;28;20112;-75
2021/06/11 02:31:53;;;;;;;4.50;2.10;;;;;;;;;;5016590;28;20383;-74
2021/06/11 02:34:18;;;;;;;3.75;2.05;;;;;;;;;;5016922;28;20041;-75
2021/06/11 02:36:44;;;;;;;3.05;2.25;;;;;;;;;;5017269;28;20033;-75
2021/06/11 02:39:09;;;;;;;3.60;2.00;;;;;;;;;;5016535;28;20029;-75
2021/06/11 02:41:43;;;;;;;3.90;2.38;;;;;;;;;;5016870;28;20033;-75
2021/06/11 02:44:08;;;;;;;2.47;1.95;;;;;;;;;;5016941;28;20075;-74
2021/06/11 02:46:41;;;;;;;3.20;1.90;;;;;;;;;;5016566;28;20025;-74
2021/06/11 02:49:13;;;;;;;2.80;2.15;;;;;;;;;;5016694;28;20076;-75
2021/06/11 02:51:49;;;;;;;3.35;2.38;;;;;;;;;;5017195;28;20124;-75
2021/06/11 02:54:22;;;;;;;4.00;2.03;;;;;;;;;;5016360;28;20036;-75
2021/06/11 02:56:51;;;;;;;3.13;2.28;;;;;;;;;;5017186;28;20102;-75
2021/06/11 02:59:38;;;;;;;3.25;2.40;;;;;;;;;;5016153;28;20033;-75
2021/06/11 03:02:08;;;;;;;2.67;1.77;;;;;;;;;;4999922;28;20028;-75
2021/06/11 03:04:34;;;;;;;3.28;1.90;;;;;;;;;;5028975;28;20113;-75
2021/06/11 03:06:59;;;;;;;2.75;1.88;;;;;;;;;;5004591;28;20116;-75
2021/06/11 03:09:26;;;;;;;2.33;1.75;;;;;;;;;;4996633;28;20515;-75
2021/06/11 03:11:56;;;;;;;3.38;2.25;;;;;;;;;;4997156;28;20105;-75
2021/06/11 03:14:21;;;;;;;3.80;1.90;;;;;;;;;;5016311;28;20553;-75
2021/06/11 03:16:52;;;;;;;2.83;1.92;;;;;;;;;;5015995;28;20034;-75
2021/06/11 03:19:18;;;;;;;2.75;1.60;;;;;;;;;;5016433;28;20038;-75
2021/06/11 03:22:08;;;;;;;8.50;1.80;;;;;;;;;;5016419;28;20033;-75
2021/06/11 03:24:58;;;;;;;2.53;1.70;;;;;;;;;;5017559;28;20052;-77
2021/06/11 03:27:30;;;;;;;3.15;1.75;;;;;;;;;;5018850;28;20021;-75
2021/06/11 03:30:00;;;;;;;3.58;2.00;;;;;;;;;;5015714;28;20486;-75
2021/06/11 03:32:28;;;;;;;3.50;1.85;;;;;;;;;;5016388;28;20029;-75
2021/06/11 03:34:54;;;;;;;3.00;2.20;;;;;;;;;;5015664;28;20405;-75
2021/06/11 03:37:20;;;;;;;2.67;1.98;;;;;;;;;;5015968;28;20055;-75
2021/06/11 03:39:53;;;;;;;3.80;1.70;;;;;;;;;;5015899;28;20038;-75
2021/06/11 03:42:18;;;;;;;3.17;1.80;;;;;;;;;;5016192;28;20029;-75
2021/06/11 03:44:46;;;;;;;4.07;1.77;;;;;;;;;;5015643;28;20136;-75
2021/06/11 03:47:12;;;;;;;3.90;2.05;;;;;;;;;;5016130;28;20030;-75
2021/06/11 03:49:39;;;;;;;3.15;2.00;;;;;;;;;;5015457;28;20446;-75
2021/06/11 03:52:05;;;;;;;2.95;1.70;;;;;;;;;;5015875;28;20037;-75
2021/06/11 03:54:31;;;;;;;2.72;1.58;;;;;;;;;;5015040;28;20025;-75
2021/06/11 03:56:56;;;;;;;3.55;1.83;;;;;;;;;;4999196;28;20034;-75
2021/06/11 03:59:22;;;;;;;4.07;1.60;;;;;;;;;;5015396;28;20045;-75
2021/06/11 04:01:49;;;;;;;2.05;1.55;;;;;;;;;;5014434;28;20045;-75
2021/06/11 04:04:14;;;;;;;2.67;2.08;;;;;;;;;;4998696;28;20107;-75
2021/06/11 04:06:49;;;;;;;4.00;1.88;;;;;;;;;;4999234;28;20063;-75
2021/06/11 04:09:16;;;;;;;4.53;1.90;;;;;;;;;;4982569;28;20507;-75
2021/06/11 04:11:49;;;;;;;3.55;2.13;;;;;;;;;;5015668;28;20030;-75
2021/06/11 04:14:25;;;;;;;3.40;2.22;;;;;;;;;;4998925;28;20037;-75
2021/06/11 04:16:53;;;;;;;2.42;1.80;;;;;;;;;;5015177;28;20037;-75
2021/06/11 04:19:26;;;;;;;3.10;1.77;;;;;;;;;;4998963;28;20498;-75
2021/06/11 04:21:53;;;;;;;3.33;2.22;;;;;;;;;;5031322;28;20041;-75
2021/06/11 04:24:22;;;;;;;4.00;1.65;;;;;;;;;;5030407;28;20471;-75
2021/06/11 04:26:47;;;;;;;2.92;1.90;;;;;;;;;;5030671;28;20049;-76
2021/06/11 04:29:15;;;;;;;3.75;1.75;;;;;;;;;;5014999;28;20072;-76
2021/06/11 04:31:41;;;;;;;5.13;2.45;;;;;;;;;;5030454;28;20510;-76
2021/06/11 04:34:06;;;;;;;4.13;1.83;;;;;;;;;;5031337;28;20069;-76
2021/06/11 04:36:34;;;;;;;4.55;1.83;;;;;;;;;;4998189;28;20413;-76
2021/06/11 04:39:05;;;;;;;3.38;1.52;;;;;;;;;;5011162;28;20042;-77
2021/06/11 04:41:30;;;;;;;5.75;2.10;;;;;;;;;;4995150;28;20026;-76
2021/06/11 04:43:57;;;;;;;5.00;2.25;;;;;;;;;;5011106;28;20099;-76
2021/06/11 04:46:22;;;;;;;5.82;1.75;;;;;;;;;;4995106;28;20491;-76
2021/06/11 04:48:48;;;;;;;6.38;2.85;;;;;;;;;;4998323;28;20087;-76
2021/06/11 04:51:13;;;;;;;5.38;1.80;;;;;;;;;;5014452;28;20029;-76
2021/06/11 04:53:39;;;;;;;4.72;1.60;;;;;;;;;;5014107;28;20040;-75
2021/06/11 04:56:07;;;;;;;4.13;1.73;;;;;;;;;;4997835;28;20480;-75
2021/06/11 04:58:37;;;;;;;3.60;1.92;;;;;;;;;;5015295;28;20472;-75
2021/06/11 05:01:03;;;;;;;2.92;1.92;;;;;;;;;;4997573;28;20041;-75
2021/06/11 05:03:28;;;;;;;3.05;1.92;;;;;;;;;;4999426;28;20045;-75
2021/06/11 05:05:54;;;;;;;4.05;2.38;;;;;;;;;;5017893;28;20113;-75
2021/06/11 05:08:19;;;;;;;3.80;1.67;;;;;;;;;;5033652;28;20078;-75
2021/06/11 05:10:45;;;;;;;4.50;2.00;;;;;;;;;;5038364;28;20108;-76
2021/06/11 05:13:11;;;;;;;4.82;2.50;;;;;;;;;;5013940;28;20056;-75
2021/06/11 05:15:36;;;;;;;3.65;1.98;;;;;;;;;;5028156;28;20029;-76
2021/06/11 05:18:05;;;;;;;4.15;1.70;;;;;;;;;;5011734;28;20081;-76
2021/06/11 05:20:32;;;;;;;4.28;1.80;;;;;;;;;;5013434;28;20030;-77
2021/06/11 05:22:57;;;;;;;4.78;2.03;;;;;;;;;;4996913;28;20037;-77
2021/06/11 05:25:23;;;;;;;5.18;2.10;;;;;;;;;;5009997;28;20511;-75
2021/06/11 05:27:48;;;;;;;4.88;2.95;;;;;;;;;;4994115;28;20033;-76
2021/06/11 05:30:17;;;;;;;4.88;3.38;;;;;;;;;;4994603;28;20034;-76
2021/06/11 05:32:44;;;;;;;6.95;3.20;;;;;;;;;;5011929;28;20041;-76
2021/06/11 05:35:09;;;;;;;4.90;3.30;;;;;;;;;;5029113;28;20033;-75
2021/06/11 05:37:35;;;;;;;6.20;2.78;;;;;;;;;;5040540;28;20059;-76
2021/06/11 05:40:00;;;;;;;3.38;2.55;;;;;;;;;;5030174;28;20395;-76
2021/06/11 05:42:25;;;;;;;7.68;3.97;;;;;;;;;;5013210;28;20479;-77
2021/06/11 05:44:51;;;;;;;5.00;3.50;;;;;;;;;;5010374;28;20059;-77
2021/06/11 05:47:16;;;;;;;6.57;3.20;;;;;;;;;;4994352;28;20399;-77
2021/06/11 05:49:42;;;;;;;4.15;2.85;;;;;;;;;;5026674;28;20033;-77
2021/06/11 05:52:07;;;;;;;5.50;3.15;;;;;;;;;;5013502;28;20041;-77
2021/06/11 05:54:33;;;;;;;6.28;3.20;;;;;;;;;;5013599;28;20021;-77
2021/06/11 05:56:58;;;;;;;9.27;3.63;;;;;;;;;;5013847;28;20124;-76
2021/06/11 05:59:24;;;;;;;4.40;3.08;;;;;;;;;;5013751;28;20051;-76
2021/06/11 06:01:49;;;;;;;6.50;3.40;;;;;;;;;;5013911;28;20117;-77
2021/06/11 06:04:15;;;;;;;5.18;3.20;;;;;;;;;;5013527;28;20038;-77
2021/06/11 06:06:40;;;;;;;5.35;3.15;;;;;;;;;;4997419;28;20041;-77
2021/06/11 06:09:06;;;;;;;6.50;3.63;;;;;;;;;;4997239;28;20037;-77
2021/06/11 06:11:31;;;;;;;5.65;3.72;;;;;;;;;;4996220;28;20123;-81
2021/06/11 06:13:57;;;;;;;5.03;3.95;;;;;;;;;;5013754;28;20102;-81
2021/06/11 06:16:22;;;;;;;5.82;4.32;;;;;;;;;;5013274;28;20045;-81
2021/06/11 06:18:48;;;;;;;6.55;4.70;;;;;;;;;;4997382;28;20033;-80
2021/06/11 06:21:13;;;;;;;8.05;3.95;;;;;;;;;;4993214;28;20057;-81
2021/06/11 06:23:39;;;;;;;7.93;4.15;;;;;;;;;;4993591;28;20052;-79
2021/06/11 06:26:04;;;;;;;9.00;4.47;;;;;;;;;;4975066;28;20062;-79
2021/06/11 06:28:30;;;;;;;6.80;3.70;;;;;;;;;;4975760;28;20030;-76
2021/06/11 06:30:55;;;;;;;14.32;4.80;;;;;;;;;;5001857;28;20030;-76
2021/06/11 06:33:21;;;;;;;8.00;3.60;;;;;;;;;;5009229;28;20097;-76
2021/06/11 06:35:46;;;;;;;6.80;3.55;;;;;;;;;;5015763;28;20038;-76
2021/06/11 06:38:13;;;;;;;6.20;3.35;;;;;;;;;;5030305;28;20037;-76
2021/06/11 06:40:40;;;;;;;6.43;3.38;;;;;;;;;;5000653;28;20069;-76
2021/06/11 06:43:05;;;;;;;6.57;3.58;;;;;;;;;;5015889;28;20511;-76
2021/06/11 06:45:30;;;;;;;5.95;2.95;;;;;;;;;;5012226;28;20029;-76
2021/06/11 06:47:56;;;;;;;5.68;3.30;;;;;;;;;;4997635;28;20033;-76
2021/06/11 06:50:21;;;;;;;6.57;3.13;;;;;;;;;;5014825;28;20041;-76
2021/06/11 06:52:47;;;;;;;6.20;3.35;;;;;;;;;;5033264;28;20064;-75
2021/06/11 06:55:13;;;;;;;8.15;3.58;;;;;;;;;;5016829;28;20077;-76
2021/06/11 06:57:38;;;;;;;7.07;3.08;;;;;;;;;;5028420;28;20033;-76
2021/06/11 07:00:05;;;;;;;5.45;3.63;;;;;;;;;;4984560;28;20156;-76
2021/06/11 07:02:31;;;;;;;5.13;3.33;;;;;;;;;;5016219;28;20037;-75
2021/06/11 07:04:56;;;;;;;8.02;3.42;;;;;;;;;;5015583;28;20483;-76
2021/06/11 07:07:22;;;;;;;6.72;3.35;;;;;;;;;;4995554;28;20037;-76
2021/06/11 07:09:47;;;;;;;6.63;4.50;;;;;;;;;;4994130;28;20061;-76
2021/06/11 07:12:13;;;;;;;7.75;4.03;;;;;;;;;;5000886;28;20143;-76
2021/06/11 07:14:38;;;;;;;8.20;4.82;;;;;;;;;;4983501;28;20052;-76
2021/06/11 07:17:04;;;;;;;8.90;5.55;;;;;;;;;;4999457;28;20078;-76
2021/06/11 07:19:30;;;;;;;8.35;4.80;;;;;;;;;;5016098;28;20033;-76
2021/06/11 07:21:56;;;;;;;7.55;5.72;;;;;;;;;;5015741;28;20036;-76
2021/06/11 07:24:21;;;;;;;10.05;6.30;;;;;;;;;;5015633;28;20030;-77
2021/06/11 07:26:47;;;;;;;7.57;4.47;;;;;;;;;;5015676;28;20037;-77
2021/06/11 07:29:12;;;;;;;7.63;5.25;;;;;;;;;;4983067;28;20511;-77
2021/06/11 07:31:38;;;;;;;10.98;5.72;;;;;;;;;;5011849;28;20034;-78
2021/06/11 07:34:03;;;;;;;7.93;4.70;;;;;;;;;;5011958;28;20049;-77
2021/06/11 07:36:29;;;;;;;8.30;5.05;;;;;;;;;;4996215;28;20044;-77
2021/06/11 07:38:54;;;;;;;7.00;4.10;;;;;;;;;;4995968;28;20065;-77
2021/06/11 07:41:21;;;;;;;7.55;4.25;;;;;;;;;;5004846;28;20049;-77
2021/06/11 07:43:50;;;;;;;6.65;3.65;;;;;;;;;;5032294;28;20034;-78
2021/06/11 07:46:15;;;;;;;8.63;5.38;;;;;;;;;;5025890;28;20034;-77
2021/06/11 07:48:41;;;;;;;8.80;5.03;;;;;;;;;;5030783;28;20364;-77
2021/06/11 07:51:06;;;;;;;9.40;5.43;;;;;;;;;;5031732;28;20496;-77
2021/06/11 07:53:32;;;;;;;11.57;6.68;;;;;;;;;;5005412;28;20607;-76
2021/06/11 07:55:57;;;;;;;11.32;6.95;;;;;;;;;;5014823;28;20120;-77
2021/06/11 07:58:23;;;;;;;9.60;6.05;;;;;;;;;;4998529;28;20033;-77
2021/06/11 08:00:48;;;;;;;8.95;7.22;;;;;;;;;;5014966;28;20069;-77
2021/06/11 08:03:14;;;;;;;10.93;6.85;;;;;;;;;;5015068;28;20037;-77
2021/06/11 08:05:39;;;;;;;12.23;7.68;;;;;;;;;;5023282;28;20025;-77
2021/06/11 08:08:06;;;;;;;9.38;7.25;;;;;;;;;;5031640;28;20030;-77
2021/06/11 08:10:32;;;;;;;8.98;7.25;;;;;;;;;;5015143;28;20391;-76
2021/06/11 08:12:57;;;;;;;10.63;6.93;;;;;;;;;;4982478;28;20040;-76
2021/06/11 08:15:23;;;;;;;8.55;6.35;;;;;;;;;;4998091;28;20041;-77
2021/06/11 08:17:51;;;;;;;9.93;7.85;;;;;;;;;;5015837;28;20034;-77
2021/06/11 08:20:17;;;;;;;11.05;7.03;;;;;;;;;;4999103;28;20041;-77
2021/06/11 08:22:42;;;;;;;8.15;7.07;;;;;;;;;;4998160;28;20068;-77
2021/06/11 08:25:10;;;;;;;10.00;6.82;;;;;;;;;;5014314;28;20052;-77
2021/06/11 08:27:39;;;;;;;9.82;6.60;;;;;;;;;;5014469;28;20464;-77
2021/06/11 08:30:06;;;;;;;10.25;7.55;;;;;;;;;;5014041;28;20033;-77
2021/06/11 08:32:31;;;;;;;11.23;8.27;;;;;;;;;;5014977;28;20561;-77
2021/06/11 08:34:56;;;;;;;23.60;16.80;;;;;;;;;;5014467;28;20041;-77
2021/06/11 08:37:23;;;;;;;12.73;8.48;;;;;;;;;;5014660;28;20402;-81
2021/06/11 08:39:53;;;;;;;11.32;7.63;;;;;;;;;;5014237;28;20025;-76
2021/06/11 08:42:24;;;;;;;8.73;6.22;;;;;;;;;;5015734;28;20391;-76
2021/06/11 08:44:50;;;;;;;10.43;6.82;;;;;;;;;;5014695;28;20037;-76
2021/06/11 08:47:16;;;;;;;10.63;7.03;;;;;;;;;;5014911;28;20029;-76
2021/06/11 08:49:42;;;;;;;8.70;5.38;;;;;;;;;;5014605;28;20167;-76
2021/06/11 08:52:08;;;;;;;9.75;6.30;;;;;;;;;;5014289;28;20112;-76
2021/06/11 08:54:33;;;;;;;9.18;5.95;;;;;;;;;;5013940;28;20033;-76
2021/06/11 08:56:59;;;;;;;8.60;6.03;;;;;;;;;;5014279;28;20037;-76
2021/06/11 08:59:24;;;;;;;6.88;5.45;;;;;;;;;;5013523;28;20040;-76
2021/06/11 09:01:50;;;;;;;11.30;7.07;;;;;;;;;;5014298;28;20029;-76
2021/06/11 09:04:15;;;;;;;8.55;5.50;;;;;;;;;;5014577;28;20056;-76
2021/06/11 09:06:41;;;;;;;8.52;5.55;;;;;;;;;;4998140;28;20407;-76
2021/06/11 09:09:06;;;;;;;9.00;4.97;;;;;;;;;;5013189;28;20033;-76
2021/06/11 09:11:33;;;;;;;7.47;5.20;;;;;;;;;;5014594;28;20030;-76
2021/06/11 09:14:11;;;;;;;7.63;5.22;;;;;;;;;;5014015;28;20033;-76
2021/06/11 09:16:53;;;;;;;7.68;4.40;;;;;;;;;;5014800;28;20431;-76
2021/06/11 09:19:19;;;;;;;;;;;;;;;;;;5016613;28;20025;-76
2021/06/11 09:21:49;;;;;;;9.00;4.78;;;;;;;;;;5026658;28;20398;-76
2021/06/11 09:27:08;;;;;;;9.52;5.15;;;;;;;;;;5010426;28;20411;-76
2021/06/11 09:29:49;;;;;;;6.50;3.90;;;;;;;;;;5015842;28;20162;-77
2021/06/11 09:32:20;;;;;;;6.60;5.05;;;;;;;;;;4995431;28;20113;-77
2021/06/11 09:35:00;;;;;;;7.25;5.22;;;;;;;;;;5013925;28;20112;-77
2021/06/11 09:37:29;;;;;;;8.23;4.90;;;;;;;;;;5013718;28;20029;-77
2021/06/11 09:40:03;;;;;;;4.93;3.85;;;;;;;;;;5014385;28;20037;-77
2021/06/11 09:42:35;;;;;;;5.68;3.72;;;;;;;;;;5014719;28;20049;-77
2021/06/11 09:45:01;;;;;;;6.03;4.65;;;;;;;;;;5013938;28;20031;-77
2021/06/11 09:47:42;;;;;;;8.05;4.53;;;;;;;;;;5030481;28;20048;-77
2021/06/11 09:50:09;;;;;;;5.93;4.47;;;;;;;;;;5025279;28;20419;-78
2021/06/11 09:52:59;;;;;;;6.63;4.45;;;;;;;;;;5030080;28;20038;-77
2021/06/11 09:55:45;;;;;;;5.63;3.97;;;;;;;;;;5004571;28;20175;-77
2021/06/11 09:58:15;;;;;;;8.60;3.80;;;;;;;;;;5029035;28;20041;-77
2021/06/11 10:00:49;;;;;;;7.55;4.65;;;;;;;;;;5029369;28;20029;-78
2021/06/11 10:03:34;;;;;;;6.55;3.70;;;;;;;;;;5031299;28;20458;-78
2021/06/11 10:06:04;;;;;;;6.05;3.40;;;;;;;;;;5010511;28;20559;-78
2021/06/11 10:08:30;;;;;;;7.63;3.90;;;;;;;;;;4994160;28;20065;-78
2021/06/11 10:10:59;;;;;;;8.27;4.32;;;;;;;;;;5000469;28;20059;-79
2021/06/11 10:13:25;;;;;;;4.82;3.90;;;;;;;;;;4999710;28;20068;-80
2021/06/11 10:15:52;;;;;;;4.50;3.60;;;;;;;;;;5013218;28;20024;-80
2021/06/11 10:18:18;;;;;;;4.88;2.95;;;;;;;;;;5001760;28;20042;-80
2021/06/11 10:20:43;;;;;;;9.00;3.80;;;;;;;;;;5033046;28;20036;-80
2021/06/11 10:23:14;;;;;;;7.20;3.60;;;;;;;;;;5014091;28;20496;-81
2021/06/11 10:25:44;;;;;;;4.78;3.60;;;;;;;;;;4998930;28;20105;-80
2021/06/11 10:28:17;;;;;;;6.85;4.07;;;;;;;;;;5001673;28;20387;-80
2021/06/11 10:30:43;;;;;;;9.77;3.55;;;;;;;;;;5000587;28;20045;-80
2021/06/11 10:33:09;;;;;;;7.22;5.55;;;;;;;;;;5016877;28;20045;-80
2021/06/11 10:35:48;;;;;;;10.02;5.60;;;;;;;;;;4980457;28;20026;-80
2021/06/11 10:38:29;;;;;;;6.70;4.50;;;;;;;;;;5013574;28;20041;-80
2021/06/11 10:40:57;;;;;;;7.25;4.32;;;;;;;;;;5013160;28;20030;-80
2021/06/11 10:43:38;;;;;;;8.57;5.20;;;;;;;;;;4980725;28;20034;-80
2021/06/11 10:46:04;;;;;;;6.20;3.47;;;;;;;;;;5013319;28;20092;-78
2021/06/11 10:49:06;;;;;;;8.57;5.53;;;;;;;;;;5006347;28;20057;-78
2021/06/11 10:51:48;;;;;;;7.07;5.13;;;;;;;;;;5031783;28;20075;-78
2021/06/11 10:54:34;;;;;;;7.82;5.47;;;;;;;;;;5018491;28;20041;-78
2021/06/11 10:57:00;;;;;;;5.13;3.67;;;;;;;;;;5031508;28;20037;-80
2021/06/11 10:59:32;;;;;;;7.90;3.63;;;;;;;;;;5032583;28;20499;-80
2021/06/11 11:01:58;;;;;;;5.95;3.17;;;;;;;;;;5012844;28;20049;-80
2021/06/11 11:04:28;;;;;;;5.97;2.92;;;;;;;;;;4980092;28;20034;-80
2021/06/11 11:06:54;;;;;;;5.60;3.78;;;;;;;;;;4996704;28;20515;-79
2021/06/11 11:09:19;;;;;;;7.03;4.07;;;;;;;;;;4993236;28;20038;-80
2021/06/11 11:11:48;;;;;;;4.28;2.70;;;;;;;;;;4996804;28;20030;-80
2021/06/11 11:14:36;;;;;;;5.18;2.80;;;;;;;;;;4984180;28;20088;-79
2021/06/11 11:17:02;;;;;;;5.97;4.15;;;;;;;;;;5015242;28;20040;-79
2021/06/11 11:19:50;;;;;;;6.15;3.85;;;;;;;;;;5015581;28;20037;-80
2021/06/11 11:22:26;;;;;;;5.18;3.22;;;;;;;;;;4999331;28;20055;-83
2021/06/11 11:24:52;;;;;;;6.05;3.47;;;;;;;;;;5032254;28;20369;-80
2021/06/11 11:27:18;;;;;;;5.50;3.58;;;;;;;;;;5016361;28;20033;-77
2021/06/11 11:29:43;;;;;;;6.10;3.88;;;;;;;;;;5000113;28;20380;-78
2021/06/11 11:32:09;;;;;;;6.25;4.05;;;;;;;;;;5016110;28;20037;-78
2021/06/11 11:34:34;;;;;;;5.00;3.80;;;;;;;;;;4995252;28;20100;-78
2021/06/11 11:36:59;;;;;;;4.28;3.47;;;;;;;;;;4990011;28;20036;-78
2021/06/11 11:39:25;;;;;;;5.93;3.45;;;;;;;;;;4980103;28;20034;-79
2021/06/11 11:41:52;;;;;;;5.32;3.05;;;;;;;;;;5013141;28;20034;-78
2021/06/11 11:44:18;;;;;;;5.00;2.63;;;;;;;;;;5015797;28;20045;-78
2021/06/11 11:46:43;;;;;;;6.15;3.20;;;;;;;;;;5015546;28;20033;-78
2021/06/11 11:49:09;;;;;;;6.43;4.28;;;;;;;;;;5015567;28;20041;-78
2021/06/11 11:51:34;;;;;;;6.72;3.42;;;;;;;;;;4983226;28;20036;-78
2021/06/11 11:54:02;;;;;;;5.65;3.10;;;;;;;;;;4998871;28;20029;-78
2021/06/11 11:56:27;;;;;;;4.25;3.05;;;;;;;;;;4978684;28;20061;-78
2021/06/11 11:58:52;;;;;;;6.40;3.45;;;;;;;;;;4979298;28;20424;-78
2021/06/11 12:01:18;;;;;;;4.35;3.13;;;;;;;;;;4998290;28;20051;-78
2021/06/11 12:03:43;;;;;;;8.95;4.25;;;;;;;;;;5014713;28;20056;-79
2021/06/11 12:06:09;;;;;;;5.85;3.20;;;;;;;;;;5011920;28;20045;-78
2021/06/11 12:08:34;;;;;;;5.82;3.05;;;;;;;;;;4995462;28;20026;-78
2021/06/11 12:11:00;;;;;;;7.80;3.13;;;;;;;;;;4979328;28;20033;-78
2021/06/11 12:13:26;;;;;;;7.30;3.35;;;;;;;;;;4995869;28;20032;-78
2021/06/11 12:15:52;;;;;;;4.65;2.83;;;;;;;;;;4995765;28;20075;-78
2021/06/11 12:18:18;;;;;;;3.42;2.67;;;;;;;;;;4981338;28;20443;-78
2021/06/11 12:20:43;;;;;;;3.97;2.67;;;;;;;;;;5015404;28;20037;-78
2021/06/11 12:23:09;;;;;;;4.63;3.17;;;;;;;;;;4998630;28;20033;-78
2021/06/11 12:25:34;;;;;;;5.72;2.70;;;;;;;;;;4998913;28;20030;-78
2021/06/11 12:28:00;;;;;;;3.75;2.08;;;;;;;;;;4998514;28;20029;-78
2021/06/11 12:30:25;;;;;;;4.63;2.50;;;;;;;;;;4998088;28;20033;-78
2021/06/11 12:32:51;;;;;;;2.88;2.05;;;;;;;;;;5014608;28;20032;-79
2021/06/11 12:35:16;;;;;;;4.32;2.35;;;;;;;;;;5014117;28;20025;-79
2021/06/11 12:37:42;;;;;;;3.88;2.75;;;;;;;;;;5010938;28;20096;-78
2021/06/11 12:40:08;;;;;;;3.55;2.08;;;;;;;;;;4994998;28;20045;-79
2021/06/11 12:42:38;;;;;;;4.60;2.05;;;;;;;;;;4992668;28;20038;-78
2021/06/11 12:45:04;;;;;;;4.03;2.10;;;;;;;;;;4994755;28;20026;-78
2021/06/11 12:47:29;;;;;;;5.03;2.60;;;;;;;;;;4996705;28;20037;-78
2021/06/11 12:49:55;;;;;;;3.42;2.00;;;;;;;;;;5014474;28;20514;-78
2021/06/11 12:52:20;;;;;;;3.97;2.05;;;;;;;;;;4998124;28;20033;-78
2021/06/11 12:54:46;;;;;;;4.40;2.25;;;;;;;;;;4998198;28;20029;-78
2021/06/11 12:57:15;;;;;;;4.13;2.30;;;;;;;;;;5014071;28;20037;-78
2021/06/11 12:59:44;;;;;;;4.30;2.35;;;;;;;;;;5014641;28;20193;-78
2021/06/11 13:02:10;;;;;;;4.85;2.22;;;;;;;;;;5014840;28;20511;-79
2021/06/11 13:04:35;;;;;;;4.10;2.20;;;;;;;;;;5013710;28;20052;-78
2021/06/11 13:07:01;;;;;;;2.95;2.03;;;;;;;;;;5013688;28;20045;-78
2021/06/11 13:09:29;;;;;;;4.47;2.10;;;;;;;;;;5014388;28;20033;-78
2021/06/11 13:11:54;;;;;;;4.55;2.13;;;;;;;;;;5015105;28;20025;-78
2021/06/11 13:14:19;;;;;;;4.60;2.15;;;;;;;;;;4997973;28;20035;-78
2021/06/11 13:16:45;;;;;;;2.97;1.80;;;;;;;;;;5013744;28;20068;-78
2021/06/11 13:19:10;;;;;;;2.42;1.50;;;;;;;;;;5014012;28;20029;-78
2021/06/11 13:21:37;;;;;;;5.13;2.63;;;;;;;;;;4997487;28;20033;-78
2021/06/11 13:24:02;;;;;;;2.67;1.73;;;;;;;;;;5014498;28;20061;-78
2021/06/11 13:26:28;;;;;;;3.25;1.40;;;;;;;;;;5013819;28;20127;-78
2021/06/11 13:28:54;;;;;;;2.63;1.60;;;;;;;;;;5014200;28;20032;-79
2021/06/11 13:31:19;;;;;;;4.97;1.40;;;;;;;;;;4997708;28;20033;-78
2021/06/11 13:33:45;;;;;;;1.95;0.90;;;;;;;;;;4997574;28;20423;-78
2021/06/11 13:36:10;;;;;;;2.25;1.10;;;;;;;;;;5011472;28;20049;-78
2021/06/11 13:38:36;;;;;;;2.40;1.15;;;;;;;;;;5010796;28;20038;-79
2021/06/11 13:41:02;;;;;;;2.05;0.80;;;;;;;;;;5027234;28;20121;-79
2021/06/11 13:43:27;;;;;;;2.13;1.00;;;;;;;;;;5012950;28;20057;-77
2021/06/11 13:45:53;;;;;;;2.17;0.80;;;;;;;;;;4996650;28;20068;-77
2021/06/11 13:48:18;;;;;;;1.58;0.77;;;;;;;;;;5025182;28;20033;-77
2021/06/11 13:50:44;;;;;;;3.55;0.68;;;;;;;;;;5000616;28;20030;-77
2021/06/11 13:53:11;;;;;;;1.23;0.70;;;;;;;;;;5017619;28;20029;-77
2021/06/11 13:55:38;;;;;;;1.65;0.50;;;;;;;;;;5018220;28;20493;-77
2021/06/11 13:58:03;;;;;;;3.60;0.68;;;;;;;;;;5017546;28;20029;-77
2021/06/11 14:00:30;;;;;;;1.83;0.52;;;;;;;;;;5017524;28;20038;-78
2021/06/11 14:02:56;;;;;;;2.72;0.50;;;;;;;;;;5017281;28;20026;-77
2021/06/11 14:05:22;;;;;;;0.82;0.25;;;;;;;;;;4999615;28;20037;-77
2021/06/11 14:07:51;;;;;;;1.15;0.43;;;;;;;;;;5017154;28;20033;-78
2021/06/11 14:10:17;;;;;;;0.60;0.20;;;;;;;;;;5036742;28;20046;-77
2021/06/11 14:12:42;;;;;;;2.05;0.45;;;;;;;;;;5014314;28;20041;-77
2021/06/11 14:15:08;;;;;;;1.05;0.50;;;;;;;;;;4997310;28;20038;-77
2021/06/11 14:17:34;;;;;;;4.10;0.55;;;;;;;;;;5014316;28;20083;-77
2021/06/11 14:20:00;;;;;;;1.67;0.50;;;;;;;;;;5045059;28;20398;-77
2021/06/11 14:22:25;;;;;;;0.90;0.45;;;;;;;;;;5019046;28;20046;-77
2021/06/11 14:24:51;;;;;;;2.47;0.45;;;;;;;;;;5000900;28;20029;-77
2021/06/11 14:27:17;;;;;;;0.65;0.30;;;;;;;;;;4997146;28;20172;-77
2021/06/11 14:29:43;;;;;;;1.20;0.32;;;;;;;;;;5012592;28;20045;-77
2021/06/11 14:32:08;;;;;;;1.27;0.40;;;;;;;;;;5000895;28;20033;-77
2021/06/11 14:34:34;;;;;;;1.60;0.22;;;;;;;;;;5032408;28;20376;-77
2021/06/11 14:36:59;;;;;;;0.32;0.10;;;;;;;;;;5016651;28;20037;-77
2021/06/11 14:39:25;;;;;;;0.82;0.20;;;;;;;;;;5000866;28;20120;-77
2021/06/11 14:41:50;;;;;;;2.35;0.20;;;;;;;;;;5000782;28;20045;-77
2021/06/11 14:44:17;;;;;;;1.77;0.40;;;;;;;;;;5033210;28;20112;-78
2021/06/11 14:46:43;;;;;;;1.48;0.20;;;;;;;;;;4983399;28;20025;-77